createdAt,value
2018-12-01T00:00:51.952Z,-3.20
2018-12-01T00:15:51.344Z,-3.32
2018-12-01T00:30:56.292Z,-3.23
2018-12-01T00:45:53.335Z,-3.18
2018-12-01T01:00:52.068Z,-3.23
2018-12-01T01:15:51.459Z,-3.24
2018-12-01T01:30:51.419Z,-3.29
2018-12-01T01:45:50.926Z,-3.06
2018-12-01T02:00:52.784Z,-2.82
2018-12-01T02:15:51.697Z,-2.76
2018-12-01T02:30:51.562Z,-2.63
2018-12-01T03:00:50.839Z,-2.39
2018-12-01T03:15:50.908Z,-2.49
2018-12-01T03:30:50.685Z,-2.78
2018-12-01T03:45:51.154Z,-2.93
2018-12-01T04:00:54.065Z,-3.17
2018-12-01T04:15:51.578Z,-3.06
2018-12-01T04:30:53.872Z,-3.04
2018-12-01T04:45:51.340Z,-2.97
2018-12-01T05:00:52.256Z,-2.87
2018-12-01T05:15:56.666Z,-2.85
2018-12-01T05:30:53.158Z,-2.78
2018-12-01T05:45:51.482Z,-2.73
2018-12-01T06:00:51.258Z,-2.52
2018-12-01T06:15:51.160Z,-2.29
2018-12-01T06:30:51.122Z,-0.87
2018-12-01T06:45:53.453Z,-0.01
2018-12-01T07:00:53.399Z,0.80
2018-12-01T07:15:51.319Z,1.59
2018-12-01T07:30:51.301Z,2.86
2018-12-01T07:45:50.636Z,4.23
2018-12-01T08:00:51.507Z,5.26
2018-12-01T08:15:52.244Z,6.08
2018-12-01T11:30:50.716Z,3.77
2018-12-01T11:45:51.513Z,4.06
2018-12-01T12:00:51.394Z,3.86
2018-12-01T12:15:51.371Z,3.52
2018-12-01T12:30:51.396Z,3.55
2018-12-01T12:45:52.797Z,3.51
2018-12-01T13:00:51.678Z,3.48
2018-12-01T13:15:51.551Z,3.48
2018-12-01T13:30:52.781Z,3.06
2018-12-01T13:45:50.913Z,2.69
2018-12-01T14:00:52.784Z,2.55
2018-12-01T14:15:50.603Z,2.50
2018-12-01T14:30:51.548Z,2.35
2018-12-01T14:45:51.082Z,2.06
2018-12-01T15:00:50.898Z,1.97
2018-12-01T15:15:51.022Z,1.83
2018-12-01T15:30:51.735Z,1.66
2018-12-01T15:45:51.707Z,1.53
2018-12-01T16:00:50.625Z,1.56
2018-12-01T16:15:57.556Z,1.59
2018-12-01T16:30:51.101Z,1.50
2018-12-01T16:45:52.076Z,1.40
2018-12-01T17:00:51.363Z,1.23
2018-12-01T17:15:53.569Z,1.17
2018-12-01T17:30:51.534Z,1.09
2018-12-01T17:45:51.107Z,0.92
2018-12-01T18:00:53.491Z,1.01
2018-12-01T18:15:53.479Z,0.80
2018-12-01T18:30:52.334Z,0.61
2018-12-01T18:45:52.366Z,0.60
2018-12-01T19:00:53.012Z,0.50
2018-12-01T19:15:51.106Z,0.51
2018-12-01T19:30:51.517Z,0.46
2018-12-01T19:45:50.998Z,0.51
2018-12-01T20:00:55.210Z,0.81
2018-12-01T20:15:55.094Z,1.02
2018-12-01T20:30:52.765Z,1.20
2018-12-01T20:45:51.186Z,0.93
2018-12-01T21:00:50.596Z,0.64
2018-12-01T21:15:51.578Z,0.62
2018-12-01T21:30:51.549Z,0.74
2018-12-01T21:45:51.255Z,0.74
2018-12-01T22:00:54.329Z,0.84
2018-12-01T22:15:51.239Z,0.90
2018-12-01T22:30:53.677Z,1.00
2018-12-01T22:45:51.579Z,0.98
2018-12-01T23:00:59.419Z,1.03
2018-12-01T23:15:51.346Z,1.08
2018-12-01T23:30:53.046Z,0.93
2018-12-01T23:45:52.586Z,0.94
